Time;durP1;ratioP1;P1;durP2;ratioP2;P2;SDS_P1;SDS_P2;PMS_P1;PMS_P2;Temp;Humidity;BMP_temperature;BMP_pressure;BME280_temperature;BME280_humidity;BME280_pressure;Samples;Min_cycle;Max_cycle;Signal;HPM_P1;HPM_P2
2022/07/20 00:01:03;;;;;;;69.10;4.47;;;27.30;1.00;;;;;;5073247;28;20245;-87
2022/07/20 00:03:30;;;;;;;68.37;4.70;;;27.30;1.00;;;;;;5071642;28;20225;-87
2022/07/20 00:05:56;;;;;;;68.17;4.10;;;27.30;1.00;;;;;;5073064;28;20164;-87
2022/07/20 00:11:22;;;;;;;70.80;4.00;;;27.20;1.00;;;;;;5072951;28;20389;-87
2022/07/20 00:13:52;;;;;;;68.97;4.50;;;27.20;1.00;;;;;;5072995;28;20781;-87
2022/07/20 00:16:19;;;;;;;69.17;4.20;;;27.10;1.00;;;;;;5071567;28;20472;-87
2022/07/20 00:18:45;;;;;;;69.40;4.30;;;27.10;1.00;;;;;;5072756;28;20513;-87
2022/07/20 00:21:10;;;;;;;68.10;4.67;;;27.00;1.00;;;;;;5072791;28;20528;-87
2022/07/20 00:23:36;;;;;;;68.47;4.60;;;27.10;1.00;;;;;;5072837;28;20169;-88
2022/07/20 00:26:02;;;;;;;70.50;5.60;;;27.00;1.00;;;;;;5072873;28;20187;-87
2022/07/20 00:28:30;;;;;;;68.47;5.50;;;27.00;1.00;;;;;;5073062;28;20543;-87
2022/07/20 00:30:55;;;;;;;69.03;5.60;;;26.90;1.00;;;;;;5073038;28;20178;-88
2022/07/20 00:33:26;;;;;;;67.87;4.93;;;26.80;1.00;;;;;;5071450;28;20411;-87
2022/07/20 00:35:52;;;;;;;69.90;5.30;;;26.60;1.00;;;;;;5073256;28;20210;-87
2022/07/20 00:38:18;;;;;;;68.97;5.47;;;26.60;1.00;;;;;;5076538;28;20797;-87
2022/07/20 00:40:46;;;;;;;71.90;5.00;;;26.60;1.00;;;;;;5076533;28;20671;-87
2022/07/20 00:43:12;;;;;;;70.30;5.70;;;26.50;1.00;;;;;;5076812;28;20523;-87
2022/07/20 00:45:38;;;;;;;68.20;6.13;;;26.50;1.00;;;;;;5076682;28;20399;-87
2022/07/20 00:48:04;;;;;;;68.40;6.23;;;26.60;1.00;;;;;;5076548;28;20686;-87
2022/07/20 00:50:30;;;;;;;69.00;5.57;;;26.60;1.00;;;;;;5075272;28;20309;-87
2022/07/20 00:52:56;;;;;;;68.97;6.10;;;26.60;1.00;;;;;;5074875;28;20437;-87
2022/07/20 00:55:22;;;;;;;70.60;6.13;;;26.70;1.00;;;;;;5076486;28;20417;-87
2022/07/20 00:57:48;;;;;;;70.30;5.97;;;26.70;1.00;;;;;;5074870;28;20507;-87
2022/07/20 01:00:14;;;;;;;69.27;6.00;;;26.70;1.00;;;;;;5074751;28;20453;-87
2022/07/20 01:02:41;;;;;;;69.37;5.67;;;26.60;1.00;;;;;;5076170;28;20807;-87
2022/07/20 01:05:14;;;;;;;69.73;5.20;;;26.60;1.00;;;;;;5076166;28;20395;-87
2022/07/20 01:07:48;;;;;;;69.17;5.83;;;26.60;1.00;;;;;;5076009;28;20953;-87
2022/07/20 01:10:19;;;;;;;68.83;5.20;;;26.50;1.00;;;;;;5077090;28;20448;-87
2022/07/20 01:12:48;;;;;;;67.87;4.83;;;26.50;1.00;;;;;;5077062;28;20406;-87
2022/07/20 01:15:14;;;;;;;69.77;5.50;;;26.50;1.00;;;;;;5075936;28;20410;-87
2022/07/20 01:17:40;;;;;;;69.63;5.50;;;26.40;1.00;;;;;;5075304;28;20434;-87
2022/07/20 01:20:06;;;;;;;71.30;5.33;;;26.40;1.00;;;;;;5075994;28;20452;-87
2022/07/20 01:22:32;;;;;;;70.50;5.30;;;26.30;1.00;;;;;;5075986;28;20761;-87
2022/07/20 01:24:59;;;;;;;68.57;5.90;;;26.30;1.00;;;;;;5076189;28;20402;-87
2022/07/20 01:27:25;;;;;;;69.60;5.03;;;26.20;1.00;;;;;;5075912;28;20191;-87
2022/07/20 01:29:50;;;;;;;68.73;5.33;;;26.20;1.00;;;;;;5074607;28;20793;-87
2022/07/20 01:32:16;;;;;;;70.77;5.60;;;26.20;1.00;;;;;;5076091;28;20183;-87
2022/07/20 01:34:42;;;;;;;68.70;4.80;;;26.20;1.00;;;;;;5075480;28;20211;-87
2022/07/20 01:37:07;;;;;;;69.80;5.07;;;26.20;1.00;;;;;;5074087;28;20186;-87
2022/07/20 01:39:33;;;;;;;68.57;4.90;;;26.20;1.00;;;;;;5075352;28;20222;-87
2022/07/20 01:41:59;;;;;;;71.03;5.97;;;26.10;1.00;;;;;;5075339;28;20182;-87
2022/07/20 01:44:24;;;;;;;70.57;5.40;;;26.10;1.00;;;;;;5075567;28;20247;-87
2022/07/20 01:46:51;;;;;;;67.50;4.57;;;26.10;1.00;;;;;;5075026;28;20174;-87
2022/07/20 01:49:19;;;;;;;69.47;5.53;;;26.00;1.00;;;;;;5075182;28;20738;-87
2022/07/20 01:51:45;;;;;;;70.10;5.20;;;25.90;1.00;;;;;;5075147;28;20766;-87
2022/07/20 01:54:11;;;;;;;67.63;4.67;;;25.80;1.00;;;;;;5075558;28;20405;-87
2022/07/20 01:56:40;;;;;;;68.10;4.30;;;25.60;1.00;;;;;;5075332;28;20406;-87
2022/07/20 01:59:06;;;;;;;67.87;4.70;;;25.70;1.00;;;;;;5073624;28;20430;-87
2022/07/20 02:01:31;;;;;;;68.20;4.37;;;25.70;1.00;;;;;;5075246;28;20445;-87
2022/07/20 02:03:57;;;;;;;67.70;4.50;;;25.70;1.00;;;;;;5074924;28;20168;-87
2022/07/20 02:06:23;;;;;;;72.50;4.40;;;25.80;1.00;;;;;;5074874;28;20532;-87
2022/07/20 02:08:48;;;;;;;68.53;4.97;;;25.70;1.00;;;;;;5074697;28;20191;-87
2022/07/20 02:11:14;;;;;;;69.13;4.87;;;25.60;1.00;;;;;;5074860;28;20164;-87
2022/07/20 02:13:40;;;;;;;69.20;4.50;;;25.70;1.00;;;;;;5074717;28;20251;-87
2022/07/20 02:16:18;;;;;;;68.67;5.37;;;25.70;1.00;;;;;;5074741;28;20176;-87
2022/07/20 02:18:55;;;;;;;69.70;5.20;;;25.30;1.00;;;;;;5074783;28;20267;-86
2022/07/20 02:21:26;;;;;;;69.57;5.33;;;25.20;1.00;;;;;;5073269;28;20817;-86
2022/07/20 02:23:52;;;;;;;68.20;5.27;;;25.10;1.00;;;;;;5073274;28;20397;-87
2022/07/20 02:26:21;;;;;;;68.20;5.00;;;25.10;1.00;;;;;;5074552;28;20403;-87
2022/07/20 02:28:49;;;;;;;69.43;5.10;;;25.00;1.00;;;;;;5074390;28;20544;-87
2022/07/20 02:31:18;;;;;;;70.20;5.57;;;25.00;1.00;;;;;;5074339;28;20429;-87
2022/07/20 02:33:44;;;;;;;70.43;5.80;;;24.80;1.00;;;;;;5074364;28;20414;-87
2022/07/20 02:36:09;;;;;;;74.40;6.13;;;24.90;1.00;;;;;;5074560;28;20414;-87
2022/07/20 02:38:35;;;;;;;68.53;6.37;;;24.90;1.00;;;;;;5074153;28;20809;-87
2022/07/20 02:41:01;;;;;;;68.57;5.53;;;24.90;1.00;;;;;;5142017;22;20223;-81
2022/07/20 02:43:27;;;;;;;70.27;6.10;;;25.10;1.00;;;;;;5079508;28;20816;-81
2022/07/20 02:45:53;;;;;;;70.90;5.40;;;25.00;1.00;;;;;;5079281;28;20160;-81
2022/07/20 02:48:18;;;;;;;69.07;5.60;;;25.00;1.00;;;;;;5061401;28;20184;-81
2022/07/20 02:50:44;;;;;;;69.20;5.20;;;24.90;1.00;;;;;;5078449;28;20187;-80
2022/07/20 02:53:11;;;;;;;69.47;5.17;;;24.90;1.00;;;;;;5061584;28;20175;-82
2022/07/20 02:55:38;;;;;;;69.60;4.63;;;24.90;1.00;;;;;;5079172;28;20187;-81
2022/07/20 02:58:04;;;;;;;68.80;5.00;;;25.00;1.00;;;;;;5078587;28;20414;-82
2022/07/20 03:00:30;;;;;;;68.80;5.20;;;25.10;1.00;;;;;;5078476;28;20529;-83
2022/07/20 03:02:56;;;;;;;69.73;5.70;;;25.30;1.00;;;;;;5079043;28;20406;-83
2022/07/20 03:05:22;;;;;;;71.53;5.40;;;25.30;1.00;;;;;;5079363;28;20398;-83
2022/07/20 03:07:48;;;;;;;69.23;5.57;;;25.20;1.00;;;;;;5063151;28;20662;-83
2022/07/20 03:10:17;;;;;;;68.40;5.57;;;25.20;1.00;;;;;;5083798;28;20414;-83
2022/07/20 03:12:43;;;;;;;70.40;5.40;;;25.20;1.00;;;;;;5060966;28;20544;-84
2022/07/20 03:15:11;;;;;;;69.80;6.03;;;25.00;1.00;;;;;;5079521;28;20406;-82
2022/07/20 03:17:52;;;;;;;69.17;5.93;;;24.80;1.00;;;;;;5078929;28;20215;-83
2022/07/20 03:20:24;;;;;;;68.47;6.60;;;24.70;1.00;;;;;;5079542;28;20430;-83
2022/07/20 03:22:50;;;;;;;67.97;5.70;;;24.90;1.00;;;;;;5079867;28;20386;-83
2022/07/20 03:25:16;;;;;;;72.17;6.37;;;24.80;1.00;;;;;;5080042;28;20422;-83
2022/07/20 03:27:42;;;;;;;68.50;6.13;;;24.80;1.00;;;;;;5080014;28;20472;-83
2022/07/20 03:30:08;;;;;;;70.67;6.27;;;24.80;1.00;;;;;;5079979;28;20186;-84
2022/07/20 03:32:34;;;;;;;68.33;5.93;;;24.60;1.00;;;;;;5080296;28;20165;-85
2022/07/20 03:35:00;;;;;;;69.87;7.27;;;24.50;1.00;;;;;;5079545;28;20427;-83
2022/07/20 03:37:26;;;;;;;70.67;5.83;;;24.50;1.00;;;;;;5079918;28;20194;-83
2022/07/20 03:39:52;;;;;;;70.30;5.70;;;24.50;1.00;;;;;;5079028;28;20722;-83
2022/07/20 03:42:18;;;;;;;73.57;7.37;;;24.60;1.00;;;;;;5079372;28;20420;-83
2022/07/20 03:44:43;;;;;;;70.43;6.67;;;24.60;1.00;;;;;;5078833;28;20433;-83
2022/07/20 03:47:10;;;;;;;68.27;6.50;;;24.80;1.00;;;;;;5061458;28;20171;-83
2022/07/20 03:49:36;;;;;;;69.60;6.37;;;24.90;1.00;;;;;;5079268;28;20159;-83
2022/07/20 03:52:02;;;;;;;68.77;6.80;;;24.90;1.00;;;;;;5060798;28;21031;-83
2022/07/20 03:54:28;;;;;;;71.37;7.17;;;25.00;1.00;;;;;;5079097;28;20442;-82
2022/07/20 03:56:53;;;;;;;67.97;5.83;;;25.10;1.00;;;;;;5060559;28;20421;-83
2022/07/20 03:59:19;;;;;;;70.20;6.20;;;25.10;1.00;;;;;;5078240;28;20319;-82
2022/07/20 04:01:45;;;;;;;68.37;5.80;;;25.10;1.00;;;;;;5060247;28;20194;-82
2022/07/20 04:04:10;;;;;;;69.00;6.83;;;25.10;1.00;;;;;;5078283;28;20527;-83
2022/07/20 04:06:36;;;;;;;68.73;6.40;;;25.10;1.00;;;;;;5078180;28;20634;-82
2022/07/20 04:09:03;;;;;;;69.90;6.03;;;25.00;1.00;;;;;;5078468;28;20189;-82
2022/07/20 04:11:29;;;;;;;70.40;5.47;;;25.00;1.00;;;;;;5062872;28;20171;-82
2022/07/20 04:13:55;;;;;;;69.13;6.00;;;25.00;1.00;;;;;;5064854;28;20422;-82
2022/07/20 04:16:21;;;;;;;72.20;5.90;;;25.00;1.00;;;;;;5082041;28;20413;-81
2022/07/20 04:18:47;;;;;;;68.60;5.10;;;25.00;1.00;;;;;;5082404;28;20195;-83
2022/07/20 04:21:14;;;;;;;69.87;5.90;;;25.00;1.00;;;;;;5064389;28;20449;-83
2022/07/20 04:23:40;;;;;;;68.67;4.60;;;25.00;1.00;;;;;;5063516;28;20422;-82
2022/07/20 04:26:06;;;;;;;72.30;4.30;;;24.90;1.00;;;;;;5082117;28;20410;-83
2022/07/20 04:28:31;;;;;;;69.70;5.70;;;24.90;1.00;;;;;;5082364;28;20184;-83
2022/07/20 04:30:57;;;;;;;69.60;5.37;;;24.80;1.00;;;;;;5065302;28;20171;-82
2022/07/20 04:33:23;;;;;;;69.27;5.43;;;24.70;1.00;;;;;;5064384;28;20663;-83
2022/07/20 04:35:49;;;;;;;68.60;4.97;;;24.80;1.00;;;;;;5064010;28;20178;-83
2022/07/20 04:38:17;;;;;;;68.57;4.37;;;24.80;1.00;;;;;;5064425;28;20689;-82
2022/07/20 04:40:43;;;;;;;69.50;5.27;;;24.80;1.00;;;;;;5069764;28;20176;-81
2022/07/20 04:43:09;;;;;;;76.40;6.73;;;24.80;1.00;;;;;;5087499;28;20452;-83
2022/07/20 04:45:35;;;;;;;69.70;6.33;;;24.80;1.00;;;;;;5064953;28;20425;-83
2022/07/20 04:48:00;;;;;;;72.90;6.63;;;24.80;1.00;;;;;;5083213;28;20180;-83
2022/07/20 04:50:28;;;;;;;70.03;6.77;;;25.00;1.00;;;;;;5065581;28;20444;-83
2022/07/20 04:52:53;;;;;;;70.07;5.87;;;25.20;1.00;;;;;;5082511;28;20408;-83
2022/07/20 04:55:19;;;;;;;69.30;6.57;;;25.50;1.00;;;;;;5082322;28;20402;-83
2022/07/20 04:57:45;;;;;;;68.30;5.30;;;25.70;1.00;;;;;;5082684;28;20600;-83
2022/07/20 05:00:11;;;;;;;73.47;6.80;;;26.00;1.00;;;;;;5064652;28;20230;-83
2022/07/20 05:02:37;;;;;;;68.20;5.20;;;26.20;1.00;;;;;;5082294;28;20257;-83
2022/07/20 05:05:04;;;;;;;74.83;6.30;;;26.20;1.00;;;;;;5064716;28;20410;-83
2022/07/20 05:07:30;;;;;;;70.47;5.80;;;26.30;1.00;;;;;;5082555;28;20421;-83
2022/07/20 05:09:55;;;;;;;72.27;6.47;;;26.20;1.00;;;;;;5082827;28;20398;-83
2022/07/20 05:12:21;;;;;;;70.47;6.43;;;26.10;1.00;;;;;;5063785;28;20594;-83
2022/07/20 05:14:47;;;;;;;72.57;6.40;;;25.90;1.00;;;;;;5065647;28;20171;-83
2022/07/20 05:17:12;;;;;;;73.57;7.97;;;25.80;1.00;;;;;;5082600;28;20667;-83
2022/07/20 05:19:38;;;;;;;71.50;6.20;;;25.80;1.00;;;;;;5081933;28;20168;-83
2022/07/20 05:22:04;;;;;;;71.23;6.50;;;25.80;1.00;;;;;;5081000;28;20160;-83
2022/07/20 05:24:29;;;;;;;73.33;7.77;;;25.90;1.00;;;;;;5082294;28;20164;-83
2022/07/20 05:26:55;;;;;;;75.63;8.77;;;25.80;1.00;;;;;;5081617;28;20243;-83
2022/07/20 05:29:24;;;;;;;71.23;8.43;;;25.80;1.00;;;;;;5081673;28;20551;-83
2022/07/20 05:31:49;;;;;;;76.93;9.83;;;25.80;1.00;;;;;;5081618;28;20175;-83
2022/07/20 05:34:18;;;;;;;77.70;10.47;;;25.80;1.00;;;;;;5063477;28;20960;-83
2022/07/20 05:36:44;;;;;;;76.37;10.50;;;25.90;1.00;;;;;;5064332;28;20175;-83
2022/07/20 05:39:09;;;;;;;75.73;10.97;;;25.90;1.00;;;;;;5063121;28;20437;-83
2022/07/20 05:41:36;;;;;;;75.90;13.60;;;25.80;1.00;;;;;;5081474;28;20277;-84
2022/07/20 05:44:02;;;;;;;78.10;15.00;;;25.70;1.00;;;;;;5081506;28;20176;-82
2022/07/20 05:46:28;;;;;;;77.37;15.17;;;25.70;1.00;;;;;;5081478;28;20487;-83
2022/07/20 05:48:53;;;;;;;82.70;17.40;;;25.80;1.00;;;;;;5081197;28;20426;-83
2022/07/20 05:51:19;;;;;;;85.77;20.67;;;25.80;1.00;;;;;;5080733;28;20420;-83
2022/07/20 05:53:45;;;;;;;79.37;18.70;;;25.70;1.00;;;;;;5080464;28;20198;-83
2022/07/20 05:56:13;;;;;;;86.77;22.17;;;25.70;1.00;;;;;;5081663;28;20180;-83
2022/07/20 05:58:39;;;;;;;88.67;20.30;;;25.70;1.00;;;;;;5081308;28;20197;-83
2022/07/20 06:01:05;;;;;;;89.57;23.70;;;25.70;1.00;;;;;;5046574;28;20956;-84
2022/07/20 06:03:31;;;;;;;84.30;23.63;;;25.80;1.00;;;;;;5081395;28;20535;-83
2022/07/20 06:05:56;;;;;;;84.50;23.67;;;25.80;1.00;;;;;;5081251;28;20680;-83
2022/07/20 06:08:22;;;;;;;80.27;18.67;;;25.80;1.00;;;;;;5081106;28;20511;-83
2022/07/20 06:10:48;;;;;;;87.23;20.27;;;25.80;1.00;;;;;;5081105;28;20171;-83
2022/07/20 06:13:13;;;;;;;95.13;19.07;;;25.80;1.00;;;;;;5082180;28;20176;-83
2022/07/20 06:15:39;;;;;;;88.13;21.50;;;25.80;1.00;;;;;;5081802;28;20203;-85
2022/07/20 06:18:06;;;;;;;82.27;19.40;;;25.90;1.00;;;;;;5081661;28;20198;-85
2022/07/20 06:20:32;;;;;;;85.90;17.27;;;26.00;1.00;;;;;;5081259;28;20208;-85
2022/07/20 06:22:58;;;;;;;82.87;15.73;;;26.00;1.00;;;;;;5080590;28;20390;-84
2022/07/20 06:25:24;;;;;;;82.57;18.43;;;26.00;1.00;;;;;;5061388;28;20912;-83
2022/07/20 06:27:50;;;;;;;83.43;18.37;;;26.00;1.00;;;;;;5061329;28;20443;-84
2022/07/20 06:30:16;;;;;;;82.83;16.87;;;26.10;1.00;;;;;;5061464;28;20171;-84
2022/07/20 06:32:42;;;;;;;85.23;16.83;;;26.10;1.00;;;;;;5061094;28;20175;-83
2022/07/20 06:35:08;;;;;;;88.87;17.87;;;26.10;1.00;;;;;;5079465;28;20418;-84
2022/07/20 06:37:35;;;;;;;84.30;16.10;;;26.20;1.00;;;;;;5079402;28;20426;-83
2022/07/20 06:40:01;;;;;;;82.90;15.80;;;26.10;1.00;;;;;;5061623;28;20446;-83
2022/07/20 06:42:27;;;;;;;90.73;17.53;;;26.10;1.00;;;;;;5079464;28;20422;-84
2022/07/20 06:44:52;;;;;;;84.33;16.97;;;26.20;1.00;;;;;;5080361;28;20168;-83
2022/07/20 06:47:18;;;;;;;85.70;17.37;;;26.20;1.00;;;;;;5061552;28;20596;-83
2022/07/20 06:49:44;;;;;;;88.33;16.73;;;26.20;1.00;;;;;;5061330;28;20252;-84
2022/07/20 06:52:09;;;;;;;83.50;15.93;;;26.20;1.00;;;;;;5080430;28;20170;-85
2022/07/20 06:54:35;;;;;;;84.50;17.37;;;26.30;1.00;;;;;;5062410;28;20614;-84
2022/07/20 06:57:01;;;;;;;84.40;16.37;;;26.30;1.00;;;;;;5080018;28;20167;-84
2022/07/20 06:59:26;;;;;;;85.60;16.73;;;26.40;1.00;;;;;;5079324;28;20168;-85
2022/07/20 07:01:52;;;;;;;82.37;16.40;;;26.30;1.00;;;;;;5061105;28;20207;-84
2022/07/20 07:04:18;;;;;;;81.63;16.23;;;26.30;1.00;;;;;;5061568;28;20178;-85
2022/07/20 07:06:45;;;;;;;79.87;14.83;;;26.30;1.00;;;;;;5079650;28;20179;-84
2022/07/20 07:09:10;;;;;;;82.43;16.00;;;26.40;1.00;;;;;;5079999;28;20452;-85
2022/07/20 07:11:37;;;;;;;82.77;15.50;;;26.50;1.00;;;;;;5062178;28;20778;-84
2022/07/20 07:14:03;;;;;;;80.90;15.10;;;26.50;1.00;;;;;;5079621;28;20221;-85
2022/07/20 07:16:29;;;;;;;85.67;15.67;;;26.50;1.00;;;;;;5079538;28;20794;-84
2022/07/20 07:18:55;;;;;;;82.70;16.00;;;26.60;1.00;;;;;;5079623;28;20434;-84
2022/07/20 07:21:20;;;;;;;80.10;15.13;;;26.90;1.00;;;;;;5079679;28;20190;-84
2022/07/20 07:23:49;;;;;;;84.10;15.73;;;27.00;1.00;;;;;;5061674;28;20254;-85
2022/07/20 07:26:16;;;;;;;82.10;15.17;;;27.20;1.00;;;;;;5079793;28;20294;-85
2022/07/20 07:28:43;;;;;;;82.13;14.37;;;27.30;1.00;;;;;;5061662;28;20433;-85
2022/07/20 07:31:09;;;;;;;88.43;16.20;;;27.20;1.00;;;;;;5079035;28;20407;-85
2022/07/20 07:33:34;;;;;;;83.00;15.00;;;27.20;1.00;;;;;;5060959;28;20406;-85
2022/07/20 07:36:00;;;;;;;81.27;14.90;;;27.20;1.00;;;;;;5079233;28;20224;-85
2022/07/20 07:38:26;;;;;;;81.90;14.30;;;27.20;1.00;;;;;;5079859;28;20194;-86
2022/07/20 07:40:51;;;;;;;81.57;15.30;;;27.30;1.00;;;;;;5079550;28;20579;-85
2022/07/20 07:43:17;;;;;;;82.90;15.37;;;27.30;1.00;;;;;;5078715;28;20152;-84
2022/07/20 07:45:43;;;;;;;81.83;15.60;;;27.30;1.00;;;;;;5078906;28;20176;-84
2022/07/20 07:48:10;;;;;;;82.60;16.10;;;27.40;1.00;;;;;;5061510;28;20202;-85
2022/07/20 07:50:40;;;;;;;80.77;14.83;;;27.40;1.00;;;;;;5060736;28;20175;-84
2022/07/20 07:53:07;;;;;;;83.47;15.70;;;27.50;1.00;;;;;;5078632;28;20509;-85
2022/07/20 07:55:37;;;;;;;81.70;14.53;;;27.60;1.00;;;;;;5059641;28;20414;-84
2022/07/20 07:58:06;;;;;;;88.97;17.23;;;27.60;1.00;;;;;;5077400;28;20422;-83
2022/07/20 08:00:32;;;;;;;80.27;14.80;;;27.80;1.00;;;;;;5078221;28;20476;-84
2022/07/20 08:02:57;;;;;;;79.30;14.73;;;27.70;1.00;;;;;;5060549;28;20394;-84
2022/07/20 08:05:23;;;;;;;81.23;15.30;;;27.60;1.00;;;;;;5079661;28;20977;-85
2022/07/20 08:07:49;;;;;;;87.30;15.87;;;27.60;1.00;;;;;;5060847;28;20195;-85
2022/07/20 08:10:15;;;;;;;80.30;14.00;;;27.50;1.00;;;;;;5080229;28;20176;-85
2022/07/20 08:12:42;;;;;;;82.40;14.90;;;27.50;1.00;;;;;;5061314;28;20418;-85
2022/07/20 08:15:09;;;;;;;83.80;15.07;;;27.40;1.00;;;;;;5079680;28;20869;-85
2022/07/20 08:17:35;;;;;;;82.60;15.20;;;27.40;1.00;;;;;;5079524;28;20840;-85
2022/07/20 08:20:00;;;;;;;84.90;15.57;;;27.50;1.00;;;;;;5079700;28;20442;-85
2022/07/20 08:22:26;;;;;;;91.30;14.40;;;27.40;1.00;;;;;;5080059;28;20218;-86
2022/07/20 08:24:52;;;;;;;80.90;15.00;;;27.50;1.00;;;;;;5079322;28;20164;-85
2022/07/20 08:27:18;;;;;;;80.93;13.70;;;27.60;1.00;;;;;;5061900;28;20196;-85
2022/07/20 08:29:43;;;;;;;81.83;15.10;;;27.60;1.00;;;;;;5063252;28;20240;-86
2022/07/20 08:32:09;;;;;;;84.80;16.07;;;27.70;1.00;;;;;;5083517;28;20164;-86
2022/07/20 08:34:35;;;;;;;83.17;15.90;;;27.80;1.00;;;;;;5081229;28;20171;-85
2022/07/20 08:37:00;;;;;;;78.70;14.50;;;27.90;1.00;;;;;;5081318;28;20238;-85
2022/07/20 08:39:26;;;;;;;81.80;16.67;;;27.80;1.00;;;;;;5063009;28;20179;-86
2022/07/20 08:41:52;;;;;;;79.37;14.60;;;27.60;1.00;;;;;;5081272;22;20574;-79
2022/07/20 08:44:18;;;;;;;90.30;15.80;;;27.40;1.00;;;;;;5076301;28;20444;-79
2022/07/20 08:46:45;;;;;;;83.63;13.23;;;27.40;1.00;;;;;;5077327;28;20805;-80
2022/07/20 08:49:13;;;;;;;81.70;14.27;;;27.40;1.00;;;;;;5075213;28;20188;-80
2022/07/20 08:51:40;;;;;;;83.47;14.10;;;27.40;1.00;;;;;;5058492;28;21056;-80
2022/07/20 08:54:06;;;;;;;82.23;12.93;;;27.40;1.00;;;;;;5076238;28;20477;-80
2022/07/20 08:56:32;;;;;;;86.67;15.93;;;27.50;1.00;;;;;;5076210;28;20879;-80
2022/07/20 08:58:58;;;;;;;78.70;13.50;;;27.60;1.00;;;;;;5079544;28;20270;-80
2022/07/20 09:01:23;;;;;;;78.87;13.37;;;27.80;1.00;;;;;;5079473;28;20235;-80
2022/07/20 09:04:04;;;;;;;83.33;14.70;;;27.80;1.00;;;;;;5079975;28;20464;-79
2022/07/20 09:06:30;;;;;;;80.40;12.50;;;27.90;1.00;;;;;;5080183;28;20532;-79
2022/07/20 09:09:04;;;;;;;82.13;14.47;;;28.00;1.00;;;;;;5079095;28;20472;-79
2022/07/20 09:11:31;;;;;;;82.73;13.40;;;28.20;1.00;;;;;;5078347;28;20386;-79
2022/07/20 09:13:56;;;;;;;83.43;14.60;;;28.40;1.00;;;;;;5078541;28;20410;-79
2022/07/20 09:16:47;;;;;;;84.27;15.90;;;28.40;1.00;;;;;;5078886;28;20451;-79
2022/07/20 09:19:14;;;;;;;82.57;15.60;;;28.50;1.00;;;;;;5078405;28;20269;-79
2022/07/20 09:21:41;;;;;;;82.83;15.83;;;28.40;1.00;;;;;;5078473;28;20457;-79
2022/07/20 09:24:08;;;;;;;90.70;15.87;;;28.40;1.00;;;;;;5078541;28;20403;-79
2022/07/20 09:26:35;;;;;;;79.90;14.63;;;28.50;1.00;;;;;;5078892;28;20913;-79
2022/07/20 09:29:03;;;;;;;79.50;15.00;;;28.50;1.00;;;;;;5078584;28;20444;-79
2022/07/20 09:31:34;;;;;;;85.43;15.33;;;28.40;1.00;;;;;;5078479;28;20401;-80
2022/07/20 09:34:01;;;;;;;83.83;15.90;;;28.40;1.00;;;;;;5078654;28;20413;-79
2022/07/20 09:36:34;;;;;;;82.43;15.47;;;28.40;1.00;;;;;;5077296;28;20419;-80
2022/07/20 09:39:26;;;;;;;81.97;14.50;;;28.40;1.00;;;;;;5078292;28;20848;-79
2022/07/20 09:41:53;;;;;;;78.37;13.57;;;28.50;1.00;;;;;;5077347;28;20530;-80
2022/07/20 09:44:22;;;;;;;78.40;12.37;;;28.60;1.00;;;;;;5077906;28;20497;-79
2022/07/20 09:46:48;;;;;;;79.13;13.57;;;28.60;1.00;;;;;;5078086;28;20411;-79
2022/07/20 09:49:14;;;;;;;82.80;15.97;;;28.50;1.00;;;;;;5077947;28;20952;-79
2022/07/20 09:51:45;;;;;;;80.73;13.57;;;28.50;1.00;;;;;;5078330;28;20391;-79
2022/07/20 09:54:18;;;;;;;79.57;15.30;;;28.70;1.00;;;;;;5078473;28;20527;-79
2022/07/20 09:56:47;;;;;;;80.03;13.60;;;28.70;1.00;;;;;;5078503;28;20399;-79
2022/07/20 09:59:14;;;;;;;78.57;13.80;;;28.70;1.00;;;;;;5077797;28;20497;-79
2022/07/20 10:01:42;;;;;;;79.57;14.87;;;28.90;1.00;;;;;;5078178;28;20809;-79
2022/07/20 10:04:10;;;;;;;78.00;14.20;;;28.90;1.00;;;;;;5077650;28;20398;-79
2022/07/20 10:06:38;;;;;;;80.83;13.67;;;29.00;1.00;;;;;;5077030;28;20460;-80
2022/07/20 10:09:05;;;;;;;82.30;13.43;;;29.10;1.00;;;;;;5077673;28;20448;-80
2022/07/20 10:11:31;;;;;;;77.80;12.93;;;29.00;1.00;;;;;;5078806;28;20403;-80
2022/07/20 10:13:59;;;;;;;80.40;13.77;;;28.90;1.00;;;;;;5076728;28;20428;-80
2022/07/20 10:16:44;;;;;;;81.10;12.40;;;28.90;1.00;;;;;;5078142;28;20927;-80
2022/07/20 10:19:10;;;;;;;79.07;12.57;;;29.00;1.00;;;;;;5078617;28;20422;-80
2022/07/20 10:21:43;;;;;;;81.63;11.97;;;29.00;1.00;;;;;;5078800;28;20519;-79
2022/07/20 10:24:31;;;;;;;80.90;13.27;;;29.10;1.00;;;;;;5079065;28;20394;-80
2022/07/20 10:27:03;;;;;;;80.37;12.80;;;29.10;1.00;;;;;;5076784;28;20933;-80
2022/07/20 10:29:33;;;;;;;82.90;13.33;;;29.20;1.00;;;;;;5078044;28;20383;-80
2022/07/20 10:32:11;;;;;;;79.70;13.57;;;29.20;1.00;;;;;;5078314;28;20382;-81
2022/07/20 10:34:46;;;;;;;80.83;18.17;;;29.10;1.00;;;;;;5076869;28;20402;-80
2022/07/20 10:37:23;;;;;;;82.20;13.40;;;29.20;1.00;;;;;;5078836;28;20461;-80
2022/07/20 10:39:52;;;;;;;79.70;12.60;;;29.30;1.00;;;;;;5076404;28;20787;-80
2022/07/20 10:42:37;;;;;;;81.83;13.93;;;29.50;1.00;;;;;;5077434;28;20453;-81
2022/07/20 10:45:27;;;;;;;77.10;11.27;;;29.40;1.00;;;;;;5078025;28;20432;-81
2022/07/20 10:48:12;;;;;;;77.60;11.53;;;29.60;1.00;;;;;;5077875;28;20426;-80
2022/07/20 10:50:38;;;;;;;78.10;11.00;;;29.80;1.00;;;;;;5076500;28;20438;-80
2022/07/20 10:53:10;;;;;;;75.67;10.47;;;29.90;1.00;;;;;;5076894;28;20387;-79
2022/07/20 10:55:36;;;;;;;119.77;17.37;;;30.10;1.00;;;;;;5076438;28;20391;-79
2022/07/20 10:58:13;;;;;;;78.00;10.97;;;30.20;1.00;;;;;;5076324;28;20424;-80
2022/07/20 11:00:44;;;;;;;75.57;10.20;;;30.50;1.00;;;;;;5077062;28;20188;-80
2022/07/20 11:03:15;;;;;;;80.93;11.03;;;30.70;1.00;;;;;;5077450;28;20485;-80
2022/07/20 11:05:42;;;;;;;85.03;10.10;;;30.60;1.00;;;;;;5077860;28;20487;-80
2022/07/20 11:08:10;;;;;;;75.80;10.10;;;30.60;1.00;;;;;;5077732;28;20471;-80
2022/07/20 11:10:37;;;;;;;82.03;10.60;;;30.50;1.00;;;;;;5076656;28;20402;-79
2022/07/20 11:13:06;;;;;;;76.30;9.33;;;30.60;1.00;;;;;;5076388;28;20905;-80
2022/07/20 11:15:45;;;;;;;73.87;9.60;;;30.50;1.00;;;;;;5076785;28;20485;-80
2022/07/20 11:18:14;;;;;;;76.33;9.97;;;30.40;1.00;;;;;;5077043;28;20411;-80
2022/07/20 11:20:54;;;;;;;73.50;8.87;;;30.30;1.00;;;;;;5076546;28;21047;-80
2022/07/20 11:23:22;;;;;;;75.20;8.73;;;30.60;1.00;;;;;;5076784;28;20455;-80
2022/07/20 11:25:54;;;;;;;77.30;9.57;;;30.80;1.00;;;;;;5076969;28;20433;-80
2022/07/20 11:28:23;;;;;;;73.90;8.67;;;30.90;1.00;;;;;;5077837;28;20422;-80
2022/07/20 11:30:50;;;;;;;74.47;8.47;;;31.10;1.00;;;;;;5076437;28;20442;-80
2022/07/20 11:33:44;;;;;;;73.53;8.33;;;31.20;1.00;;;;;;5075591;28;20505;-80
2022/07/20 11:36:19;;;;;;;74.77;9.43;;;31.40;1.00;;;;;;5075033;28;20457;-80
2022/07/20 11:38:50;;;;;;;77.73;10.20;;;31.60;1.00;;;;;;5077926;28;20417;-80
2022/07/20 11:41:19;;;;;;;76.03;10.57;;;31.60;1.00;;;;;;5076646;28;20465;-80
2022/07/20 11:43:45;;;;;;;73.83;10.80;;;31.70;1.00;;;;;;5075071;28;20440;-80
2022/07/20 11:46:15;;;;;;;79.07;10.53;;;31.60;1.00;;;;;;5076448;28;20493;-80
2022/07/20 11:48:42;;;;;;;73.70;11.13;;;31.50;1.00;;;;;;5075448;28;20683;-81
2022/07/20 11:51:09;;;;;;;72.87;10.43;;;31.40;1.00;;;;;;5076283;28;20406;-80
2022/07/20 11:53:38;;;;;;;74.70;11.40;;;31.20;1.00;;;;;;5075145;28;20407;-81
2022/07/20 11:56:10;;;;;;;76.70;11.77;;;31.00;1.00;;;;;;5076541;28;20441;-81
2022/07/20 11:58:38;;;;;;;74.30;10.67;;;30.90;1.00;;;;;;5075711;28;20476;-80
2022/07/20 12:01:07;;;;;;;76.90;10.70;;;30.70;1.00;;;;;;5075323;28;20446;-81
2022/07/20 12:03:39;;;;;;;77.47;11.83;;;30.90;1.00;;;;;;5076064;28;20401;-80
2022/07/20 12:06:10;;;;;;;75.37;13.20;;;31.10;1.00;;;;;;5075212;28;20394;-80
2022/07/20 12:08:37;;;;;;;78.27;11.47;;;31.50;1.00;;;;;;5075267;28;20441;-80
2022/07/20 12:11:04;;;;;;;76.63;11.93;;;31.80;1.00;;;;;;5075508;28;20428;-80
2022/07/20 12:13:30;;;;;;;76.50;11.10;;;31.90;1.00;;;;;;5075126;28;20409;-80
2022/07/20 12:16:02;;;;;;;77.40;11.30;;;31.90;1.00;;;;;;5076429;28;20957;-80
2022/07/20 12:18:40;;;;;;;74.80;8.80;;;31.90;1.00;;;;;;5076324;28;20191;-80
2022/07/20 12:21:10;;;;;;;74.07;8.80;;;32.20;1.00;;;;;;5076104;28;20531;-80
2022/07/20 12:23:37;;;;;;;73.47;9.20;;;32.00;1.00;;;;;;5076124;28;20488;-80
2022/07/20 12:26:23;;;;;;;72.60;8.60;;;32.20;1.00;;;;;;5075997;28;20394;-80
2022/07/20 12:28:49;;;;;;;83.43;8.13;;;32.40;1.00;;;;;;5074737;28;20488;-81
2022/07/20 12:31:18;;;;;;;74.47;7.60;;;32.50;1.00;;;;;;5074476;28;20910;-80
2022/07/20 12:34:06;;;;;;;74.40;6.97;;;32.60;1.00;;;;;;5078840;28;20176;-79
2022/07/20 12:36:33;;;;;;;72.47;7.17;;;32.70;1.00;;;;;;5080720;28;20422;-79
2022/07/20 12:39:00;;;;;;;75.07;6.80;;;32.60;1.00;;;;;;5079644;28;20438;-79
2022/07/20 12:41:26;;;;;;;73.13;6.23;;;32.50;1.00;;;;;;5079483;28;20561;-80
2022/07/20 12:43:51;;;;;;;78.63;6.50;;;32.40;1.00;;;;;;5079181;28;20450;-79
2022/07/20 12:46:17;;;;;;;71.57;5.90;;;32.30;1.00;;;;;;5080019;28;20163;-80
2022/07/20 12:48:46;;;;;;;71.30;6.10;;;32.20;1.00;;;;;;5080413;28;20206;-80